sensor_id;sensor_type;location;lat;lon;timestamp;temperature;humidity
15355;DHT22;7777;52.254;9.618;2023-01-09T00:01:49;8.00;99.90
15355;DHT22;7777;52.254;9.618;2023-01-09T00:04:16;8.10;99.90
15355;DHT22;7777;52.254;9.618;2023-01-09T00:06:42;8.10;99.90
15355;DHT22;7777;52.254;9.618;2023-01-09T00:09:10;8.10;99.90
15355;DHT22;7777;52.254;9.618;2023-01-09T00:11:36;8.10;99.90
15355;DHT22;7777;52.254;9.618;2023-01-09T00:14:02;8.10;99.90
15355;DHT22;7777;52.254;9.618;2023-01-09T00:16:29;8.10;99.90
15355;DHT22;7777;52.254;9.618;2023-01-09T00:18:55;8.10;99.90
15355;DHT22;7777;52.254;9.618;2023-01-09T00:21:21;8.10;99.90
15355;DHT22;7777;52.254;9.618;2023-01-09T00:23:48;8.20;99.90
15355;DHT22;7777;52.254;9.618;2023-01-09T00:26:17;8.10;99.90
15355;DHT22;7777;52.254;9.618;2023-01-09T00:28:45;8.10;99.90
15355;DHT22;7777;52.254;9.618;2023-01-09T00:31:12;8.10;99.90
15355;DHT22;7777;52.254;9.618;2023-01-09T00:33:41;8.20;99.90
15355;DHT22;7777;52.254;9.618;2023-01-09T00:36:08;8.20;99.90
15355;DHT22;7777;52.254;9.618;2023-01-09T00:38:34;8.20;99.90
15355;DHT22;7777;52.254;9.618;2023-01-09T00:41:03;8.20;99.90
15355;DHT22;7777;52.254;9.618;2023-01-09T00:43:34;8.20;99.90
15355;DHT22;7777;52.254;9.618;2023-01-09T00:46:05;8.30;99.90
15355;DHT22;7777;52.254;9.618;2023-01-09T00:48:34;8.30;99.90
15355;DHT22;7777;52.254;9.618;2023-01-09T00:51:02;8.30;99.90
15355;DHT22;7777;52.254;9.618;2023-01-09T00:53:30;8.20;99.90
15355;DHT22;7777;52.254;9.618;2023-01-09T00:55:59;8.20;99.90
15355;DHT22;7777;52.254;9.618;2023-01-09T00:58:26;8.20;99.90
15355;DHT22;7777;52.254;9.618;2023-01-09T01:00:52;8.20;99.90
15355;DHT22;7777;52.254;9.618;2023-01-09T01:03:18;8.20;99.90
15355;DHT22;7777;52.254;9.618;2023-01-09T01:05:44;8.20;99.90
15355;DHT22;7777;52.254;9.618;2023-01-09T01:08:28;8.30;99.90
15355;DHT22;7777;52.254;9.618;2023-01-09T01:10:54;8.20;99.90
15355;DHT22;7777;52.254;9.618;2023-01-09T01:13:20;8.20;99.90
15355;DHT22;7777;52.254;9.618;2023-01-09T01:15:45;8.30;99.90
15355;DHT22;7777;52.254;9.618;2023-01-09T01:18:12;8.30;99.90
15355;DHT22;7777;52.254;9.618;2023-01-09T01:20:42;8.30;99.90
15355;DHT22;7777;52.254;9.618;2023-01-09T01:23:09;8.30;99.90
15355;DHT22;7777;52.254;9.618;2023-01-09T01:25:40;8.30;99.90
15355;DHT22;7777;52.254;9.618;2023-01-09T01:28:07;8.30;99.90
15355;DHT22;7777;52.254;9.618;2023-01-09T01:30:39;8.30;99.90
15355;DHT22;7777;52.254;9.618;2023-01-09T01:33:06;8.30;99.90
15355;DHT22;7777;52.254;9.618;2023-01-09T01:35:33;8.30;99.90
15355;DHT22;7777;52.254;9.618;2023-01-09T01:38:00;8.30;99.90
15355;DHT22;7777;52.254;9.618;2023-01-09T01:40:26;8.30;99.90
15355;DHT22;7777;52.254;9.618;2023-01-09T01:42:53;8.30;99.90
15355;DHT22;7777;52.254;9.618;2023-01-09T01:45:22;8.30;99.90
15355;DHT22;7777;52.254;9.618;2023-01-09T01:47:55;8.40;99.90
15355;DHT22;7777;52.254;9.618;2023-01-09T01:50:42;8.30;99.90
15355;DHT22;7777;52.254;9.618;2023-01-09T01:56:19;8.30;99.90
15355;DHT22;7777;52.254;9.618;2023-01-09T02:01:30;8.30;99.90
15355;DHT22;7777;52.254;9.618;2023-01-09T02:03:59;8.30;99.90
15355;DHT22;7777;52.254;9.618;2023-01-09T02:06:26;8.30;99.90
15355;DHT22;7777;52.254;9.618;2023-01-09T02:08:53;8.30;99.90
15355;DHT22;7777;52.254;9.618;2023-01-09T02:11:21;8.20;99.90
15355;DHT22;7777;52.254;9.618;2023-01-09T02:13:47;8.30;99.90
15355;DHT22;7777;52.254;9.618;2023-01-09T02:16:35;8.20;99.90
15355;DHT22;7777;52.254;9.618;2023-01-09T02:40:34;8.20;99.90
15355;DHT22;7777;52.254;9.618;2023-01-09T02:43:28;8.20;99.90
15355;DHT22;7777;52.254;9.618;2023-01-09T02:45:54;8.10;99.90
15355;DHT22;7777;52.254;9.618;2023-01-09T02:48:20;8.10;99.90
15355;DHT22;7777;52.254;9.618;2023-01-09T02:51:08;8.10;99.90
15355;DHT22;7777;52.254;9.618;2023-01-09T02:54:01;8.10;99.90
15355;DHT22;7777;52.254;9.618;2023-01-09T03:08:24;8.10;99.90
15355;DHT22;7777;52.254;9.618;2023-01-09T03:11:02;8.10;99.90
15355;DHT22;7777;52.254;9.618;2023-01-09T03:16:23;8.10;99.90
15355;DHT22;7777;52.254;9.618;2023-01-09T03:19:00;8.10;99.90
15355;DHT22;7777;52.254;9.618;2023-01-09T03:21:30;8.10;99.90
15355;DHT22;7777;52.254;9.618;2023-01-09T03:23:59;8.00;99.90
15355;DHT22;7777;52.254;9.618;2023-01-09T03:26:29;8.00;99.90
15355;DHT22;7777;52.254;9.618;2023-01-09T03:28:56;8.10;99.90
15355;DHT22;7777;52.254;9.618;2023-01-09T03:31:52;8.00;99.90
15355;DHT22;7777;52.254;9.618;2023-01-09T03:34:30;8.00;99.90
15355;DHT22;7777;52.254;9.618;2023-01-09T03:37:07;8.10;99.90
15355;DHT22;7777;52.254;9.618;2023-01-09T03:43:25;8.10;99.90
15355;DHT22;7777;52.254;9.618;2023-01-09T03:45:51;8.10;99.90
15355;DHT22;7777;52.254;9.618;2023-01-09T03:48:17;8.10;99.90
15355;DHT22;7777;52.254;9.618;2023-01-09T03:50:49;8.10;99.90
15355;DHT22;7777;52.254;9.618;2023-01-09T03:56:37;8.20;99.90
15355;DHT22;7777;52.254;9.618;2023-01-09T03:59:05;8.20;99.90
15355;DHT22;7777;52.254;9.618;2023-01-09T04:01:37;8.20;99.90
15355;DHT22;7777;52.254;9.618;2023-01-09T04:04:03;8.20;99.90
15355;DHT22;7777;52.254;9.618;2023-01-09T04:06:30;8.20;99.90
15355;DHT22;7777;52.254;9.618;2023-01-09T04:09:02;8.20;99.90
15355;DHT22;7777;52.254;9.618;2023-01-09T04:14:15;8.20;99.90
15355;DHT22;7777;52.254;9.618;2023-01-09T04:16:44;8.20;99.90
15355;DHT22;7777;52.254;9.618;2023-01-09T04:19:10;8.20;99.90
15355;DHT22;7777;52.254;9.618;2023-01-09T04:21:36;8.20;99.90
15355;DHT22;7777;52.254;9.618;2023-01-09T04:24:02;8.20;99.90
15355;DHT22;7777;52.254;9.618;2023-01-09T04:26:29;8.20;99.90
15355;DHT22;7777;52.254;9.618;2023-01-09T04:28:55;8.20;99.90
15355;DHT22;7777;52.254;9.618;2023-01-09T04:31:21;8.20;99.90
15355;DHT22;7777;52.254;9.618;2023-01-09T04:33:49;8.20;99.90
15355;DHT22;7777;52.254;9.618;2023-01-09T04:36:15;8.20;99.90
15355;DHT22;7777;52.254;9.618;2023-01-09T04:38:41;8.20;99.90
15355;DHT22;7777;52.254;9.618;2023-01-09T04:41:08;8.10;99.90
15355;DHT22;7777;52.254;9.618;2023-01-09T04:43:35;8.10;99.90
15355;DHT22;7777;52.254;9.618;2023-01-09T04:46:01;8.20;99.90
15355;DHT22;7777;52.254;9.618;2023-01-09T04:48:28;8.10;99.90
15355;DHT22;7777;52.254;9.618;2023-01-09T04:50:56;8.10;99.90
15355;DHT22;7777;52.254;9.618;2023-01-09T04:53:24;8.10;99.90
15355;DHT22;7777;52.254;9.618;2023-01-09T04:55:50;8.10;99.90
15355;DHT22;7777;52.254;9.618;2023-01-09T04:58:18;8.10;99.90
15355;DHT22;7777;52.254;9.618;2023-01-09T05:00:44;8.10;99.90
15355;DHT22;7777;52.254;9.618;2023-01-09T05:03:10;8.10;99.90
15355;DHT22;7777;52.254;9.618;2023-01-09T05:05:37;8.00;99.90
15355;DHT22;7777;52.254;9.618;2023-01-09T05:08:03;8.10;99.90
15355;DHT22;7777;52.254;9.618;2023-01-09T05:10:30;8.10;99.90
15355;DHT22;7777;52.254;9.618;2023-01-09T05:12:57;8.10;99.90
15355;DHT22;7777;52.254;9.618;2023-01-09T05:15:23;8.10;99.90
15355;DHT22;7777;52.254;9.618;2023-01-09T05:17:52;8.10;99.90
15355;DHT22;7777;52.254;9.618;2023-01-09T05:20:19;8.00;99.90
15355;DHT22;7777;52.254;9.618;2023-01-09T05:22:46;8.00;99.90
15355;DHT22;7777;52.254;9.618;2023-01-09T05:25:14;8.00;99.90
15355;DHT22;7777;52.254;9.618;2023-01-09T05:27:41;8.00;99.90
15355;DHT22;7777;52.254;9.618;2023-01-09T05:30:13;8.00;99.90
15355;DHT22;7777;52.254;9.618;2023-01-09T05:32:39;8.00;99.90
15355;DHT22;7777;52.254;9.618;2023-01-09T05:35:09;8.00;99.90
15355;DHT22;7777;52.254;9.618;2023-01-09T05:37:36;8.00;99.90
15355;DHT22;7777;52.254;9.618;2023-01-09T05:40:02;8.00;99.90
15355;DHT22;7777;52.254;9.618;2023-01-09T05:42:29;8.00;99.90
15355;DHT22;7777;52.254;9.618;2023-01-09T05:44:54;8.00;99.90
15355;DHT22;7777;52.254;9.618;2023-01-09T05:47:20;8.00;99.90
15355;DHT22;7777;52.254;9.618;2023-01-09T05:49:46;8.00;99.90
15355;DHT22;7777;52.254;9.618;2023-01-09T05:52:12;8.00;99.90
15355;DHT22;7777;52.254;9.618;2023-01-09T05:54:38;8.00;99.90
15355;DHT22;7777;52.254;9.618;2023-01-09T05:57:06;8.00;99.90
15355;DHT22;7777;52.254;9.618;2023-01-09T05:59:32;8.00;99.90
15355;DHT22;7777;52.254;9.618;2023-01-09T06:01:58;8.00;99.90
15355;DHT22;7777;52.254;9.618;2023-01-09T06:04:27;8.00;99.90
15355;DHT22;7777;52.254;9.618;2023-01-09T06:06:55;8.00;99.90
15355;DHT22;7777;52.254;9.618;2023-01-09T06:09:24;8.00;99.90
15355;DHT22;7777;52.254;9.618;2023-01-09T06:11:50;8.00;99.90
15355;DHT22;7777;52.254;9.618;2023-01-09T06:14:16;8.00;99.90
15355;DHT22;7777;52.254;9.618;2023-01-09T06:16:42;7.90;99.90
15355;DHT22;7777;52.254;9.618;2023-01-09T06:19:07;7.90;99.90
15355;DHT22;7777;52.254;9.618;2023-01-09T06:21:33;7.90;99.90
15355;DHT22;7777;52.254;9.618;2023-01-09T06:23:59;7.90;99.90
15355;DHT22;7777;52.254;9.618;2023-01-09T06:26:25;7.90;99.90
15355;DHT22;7777;52.254;9.618;2023-01-09T06:28:52;7.90;99.90
15355;DHT22;7777;52.254;9.618;2023-01-09T06:31:22;7.90;99.90
15355;DHT22;7777;52.254;9.618;2023-01-09T06:33:49;7.80;99.90
15355;DHT22;7777;52.254;9.618;2023-01-09T06:36:15;7.80;99.90
15355;DHT22;7777;52.254;9.618;2023-01-09T06:38:41;7.80;99.90
15355;DHT22;7777;52.254;9.618;2023-01-09T06:41:08;7.80;99.90
15355;DHT22;7777;52.254;9.618;2023-01-09T06:43:34;7.70;99.90
15355;DHT22;7777;52.254;9.618;2023-01-09T06:46:00;7.60;99.90
15355;DHT22;7777;52.254;9.618;2023-01-09T06:48:26;7.60;99.90
15355;DHT22;7777;52.254;9.618;2023-01-09T06:50:53;7.60;99.90
15355;DHT22;7777;52.254;9.618;2023-01-09T06:53:19;7.60;99.90
15355;DHT22;7777;52.254;9.618;2023-01-09T06:55:45;7.60;99.90
15355;DHT22;7777;52.254;9.618;2023-01-09T06:58:11;7.50;99.90
15355;DHT22;7777;52.254;9.618;2023-01-09T07:00:38;7.50;99.90
15355;DHT22;7777;52.254;9.618;2023-01-09T07:03:04;7.50;99.90
15355;DHT22;7777;52.254;9.618;2023-01-09T07:05:32;7.40;99.90
15355;DHT22;7777;52.254;9.618;2023-01-09T07:08:02;7.40;99.90
15355;DHT22;7777;52.254;9.618;2023-01-09T07:10:28;7.40;99.90
15355;DHT22;7777;52.254;9.618;2023-01-09T07:12:54;7.30;99.90
15355;DHT22;7777;52.254;9.618;2023-01-09T07:15:20;7.30;99.90
15355;DHT22;7777;52.254;9.618;2023-01-09T07:17:47;7.30;99.90
15355;DHT22;7777;52.254;9.618;2023-01-09T07:20:13;7.30;99.90
15355;DHT22;7777;52.254;9.618;2023-01-09T07:22:39;7.30;99.90
15355;DHT22;7777;52.254;9.618;2023-01-09T07:25:05;7.30;99.90
15355;DHT22;7777;52.254;9.618;2023-01-09T07:27:31;7.30;99.90
15355;DHT22;7777;52.254;9.618;2023-01-09T07:29:57;7.30;99.90
15355;DHT22;7777;52.254;9.618;2023-01-09T07:32:23;7.30;99.90
15355;DHT22;7777;52.254;9.618;2023-01-09T07:34:48;7.20;99.90
15355;DHT22;7777;52.254;9.618;2023-01-09T07:37:16;7.20;99.90
15355;DHT22;7777;52.254;9.618;2023-01-09T07:39:42;7.20;99.90
15355;DHT22;7777;52.254;9.618;2023-01-09T07:42:08;7.10;99.90
15355;DHT22;7777;52.254;9.618;2023-01-09T07:44:34;7.10;99.90
15355;DHT22;7777;52.254;9.618;2023-01-09T07:47:00;7.10;99.90
15355;DHT22;7777;52.254;9.618;2023-01-09T07:49:32;7.00;99.90
15355;DHT22;7777;52.254;9.618;2023-01-09T07:52:11;7.00;99.90
15355;DHT22;7777;52.254;9.618;2023-01-09T07:54:37;7.00;99.90
15355;DHT22;7777;52.254;9.618;2023-01-09T07:57:03;7.00;99.90
15355;DHT22;7777;52.254;9.618;2023-01-09T07:59:29;6.90;99.90
15355;DHT22;7777;52.254;9.618;2023-01-09T08:01:55;6.90;99.90
15355;DHT22;7777;52.254;9.618;2023-01-09T08:04:21;6.90;99.90
15355;DHT22;7777;52.254;9.618;2023-01-09T08:06:47;6.90;99.90
15355;DHT22;7777;52.254;9.618;2023-01-09T08:09:13;6.90;99.90
15355;DHT22;7777;52.254;9.618;2023-01-09T08:11:40;6.90;99.90
15355;DHT22;7777;52.254;9.618;2023-01-09T08:14:06;6.90;99.90
15355;DHT22;7777;52.254;9.618;2023-01-09T08:16:32;6.90;99.90
15355;DHT22;7777;52.254;9.618;2023-01-09T08:18:58;6.90;99.90
15355;DHT22;7777;52.254;9.618;2023-01-09T08:21:24;6.90;99.90
15355;DHT22;7777;52.254;9.618;2023-01-09T08:23:50;7.00;99.90
15355;DHT22;7777;52.254;9.618;2023-01-09T08:26:16;7.00;99.90
15355;DHT22;7777;52.254;9.618;2023-01-09T08:28:42;7.00;99.90
15355;DHT22;7777;52.254;9.618;2023-01-09T08:31:08;7.00;99.90
15355;DHT22;7777;52.254;9.618;2023-01-09T08:33:34;7.00;99.90
15355;DHT22;7777;52.254;9.618;2023-01-09T08:36:00;7.00;99.90
15355;DHT22;7777;52.254;9.618;2023-01-09T08:38:26;7.00;99.90
15355;DHT22;7777;52.254;9.618;2023-01-09T08:40:52;7.10;99.90
15355;DHT22;7777;52.254;9.618;2023-01-09T08:43:17;7.10;99.90
15355;DHT22;7777;52.254;9.618;2023-01-09T08:46:02;7.20;99.90
15355;DHT22;7777;52.254;9.618;2023-01-09T08:48:46;7.20;99.90
15355;DHT22;7777;52.254;9.618;2023-01-09T08:51:13;7.20;99.90
15355;DHT22;7777;52.254;9.618;2023-01-09T08:53:38;7.20;99.90
15355;DHT22;7777;52.254;9.618;2023-01-09T08:56:05;7.30;99.90
15355;DHT22;7777;52.254;9.618;2023-01-09T08:58:32;7.30;99.90
15355;DHT22;7777;52.254;9.618;2023-01-09T09:00:59;7.30;99.90
15355;DHT22;7777;52.254;9.618;2023-01-09T09:03:24;7.30;99.90
15355;DHT22;7777;52.254;9.618;2023-01-09T09:05:51;7.40;99.90
15355;DHT22;7777;52.254;9.618;2023-01-09T09:08:17;7.40;99.90
15355;DHT22;7777;52.254;9.618;2023-01-09T09:10:44;7.40;99.90
15355;DHT22;7777;52.254;9.618;2023-01-09T09:13:10;7.50;99.90
15355;DHT22;7777;52.254;9.618;2023-01-09T09:15:36;7.50;99.90
15355;DHT22;7777;52.254;9.618;2023-01-09T09:18:05;7.50;99.90
15355;DHT22;7777;52.254;9.618;2023-01-09T09:20:33;7.50;99.90
15355;DHT22;7777;52.254;9.618;2023-01-09T09:25:50;7.50;99.90
15355;DHT22;7777;52.254;9.618;2023-01-09T09:28:16;7.50;99.90
15355;DHT22;7777;52.254;9.618;2023-01-09T09:30:42;7.50;99.90
15355;DHT22;7777;52.254;9.618;2023-01-09T09:33:08;7.60;99.90
15355;DHT22;7777;52.254;9.618;2023-01-09T09:35:34;7.60;99.90
15355;DHT22;7777;52.254;9.618;2023-01-09T09:38:03;7.60;99.90
15355;DHT22;7777;52.254;9.618;2023-01-09T09:40:46;7.60;99.90
15355;DHT22;7777;52.254;9.618;2023-01-09T09:43:29;7.60;99.90
15355;DHT22;7777;52.254;9.618;2023-01-09T09:46:48;7.60;99.90
15355;DHT22;7777;52.254;9.618;2023-01-09T09:49:30;7.50;99.90
15355;DHT22;7777;52.254;9.618;2023-01-09T09:52:12;7.60;99.90
15355;DHT22;7777;52.254;9.618;2023-01-09T09:54:48;7.60;99.90
15355;DHT22;7777;52.254;9.618;2023-01-09T09:57:22;7.60;99.90
15355;DHT22;7777;52.254;9.618;2023-01-09T09:59:54;7.60;99.90
15355;DHT22;7777;52.254;9.618;2023-01-09T10:02:29;7.60;99.90
15355;DHT22;7777;52.254;9.618;2023-01-09T10:05:18;7.60;99.90
15355;DHT22;7777;52.254;9.618;2023-01-09T10:07:56;7.60;99.90
15355;DHT22;7777;52.254;9.618;2023-01-09T10:10:43;7.60;99.90
15355;DHT22;7777;52.254;9.618;2023-01-09T10:13:17;7.60;99.90
15355;DHT22;7777;52.254;9.618;2023-01-09T10:27:15;7.80;99.90
15355;DHT22;7777;52.254;9.618;2023-01-09T10:32:38;7.80;99.90
15355;DHT22;7777;52.254;9.618;2023-01-09T10:38:12;8.00;99.90
15355;DHT22;7777;52.254;9.618;2023-01-09T10:40:53;8.00;99.90
15355;DHT22;7777;52.254;9.618;2023-01-09T10:44:02;8.00;99.90
15355;DHT22;7777;52.254;9.618;2023-01-09T10:46:57;8.10;99.90
15355;DHT22;7777;52.254;9.618;2023-01-09T10:49:23;8.20;99.90
15355;DHT22;7777;52.254;9.618;2023-01-09T10:51:55;8.20;99.90
15355;DHT22;7777;52.254;9.618;2023-01-09T10:54:57;8.30;99.90
15355;DHT22;7777;52.254;9.618;2023-01-09T10:57:42;8.30;99.90
15355;DHT22;7777;52.254;9.618;2023-01-09T11:00:21;8.40;99.90
15355;DHT22;7777;52.254;9.618;2023-01-09T11:02:49;8.40;99.90
15355;DHT22;7777;52.254;9.618;2023-01-09T11:05:25;8.40;99.90
15355;DHT22;7777;52.254;9.618;2023-01-09T11:07:57;8.50;99.90
15355;DHT22;7777;52.254;9.618;2023-01-09T11:10:52;8.50;99.90
15355;DHT22;7777;52.254;9.618;2023-01-09T11:13:30;8.50;99.90
15355;DHT22;7777;52.254;9.618;2023-01-09T11:16:13;8.50;99.90
15355;DHT22;7777;52.254;9.618;2023-01-09T11:24:32;8.40;99.90
15355;DHT22;7777;52.254;9.618;2023-01-09T11:30:06;8.50;99.90
15355;DHT22;7777;52.254;9.618;2023-01-09T11:32:48;8.50;99.90
15355;DHT22;7777;52.254;9.618;2023-01-09T11:35:21;8.50;99.90
15355;DHT22;7777;52.254;9.618;2023-01-09T11:37:59;8.40;99.90
15355;DHT22;7777;52.254;9.618;2023-01-09T11:40:33;8.40;99.90
15355;DHT22;7777;52.254;9.618;2023-01-09T11:43:12;8.40;99.90
15355;DHT22;7777;52.254;9.618;2023-01-09T11:46:01;8.40;99.90
15355;DHT22;7777;52.254;9.618;2023-01-09T11:48:32;8.40;99.90
15355;DHT22;7777;52.254;9.618;2023-01-09T11:51:00;8.40;99.90
15355;DHT22;7777;52.254;9.618;2023-01-09T11:53:27;8.40;99.90
15355;DHT22;7777;52.254;9.618;2023-01-09T11:56:01;8.40;99.90
15355;DHT22;7777;52.254;9.618;2023-01-09T11:58:32;8.40;99.90
15355;DHT22;7777;52.254;9.618;2023-01-09T12:04:21;8.40;99.90
15355;DHT22;7777;52.254;9.618;2023-01-09T12:12:09;8.40;99.90
15355;DHT22;7777;52.254;9.618;2023-01-09T12:20:54;8.40;99.90
15355;DHT22;7777;52.254;9.618;2023-01-09T12:26:21;8.50;99.90
15355;DHT22;7777;52.254;9.618;2023-01-09T12:42:51;8.80;99.90
15355;DHT22;7777;52.254;9.618;2023-01-09T12:45:32;8.80;99.90
15355;DHT22;7777;52.254;9.618;2023-01-09T12:53:43;8.80;99.90
15355;DHT22;7777;52.254;9.618;2023-01-09T12:56:28;8.80;99.90
15355;DHT22;7777;52.254;9.618;2023-01-09T12:59:05;8.80;99.90
15355;DHT22;7777;52.254;9.618;2023-01-09T13:02:05;8.80;99.90
15355;DHT22;7777;52.254;9.618;2023-01-09T13:05:02;8.90;99.90
15355;DHT22;7777;52.254;9.618;2023-01-09T13:08:38;8.80;99.90
15355;DHT22;7777;52.254;9.618;2023-01-09T13:10:46;8.80;99.90
15355;DHT22;7777;52.254;9.618;2023-01-09T13:16:05;8.80;99.90
15355;DHT22;7777;52.254;9.618;2023-01-09T13:18:42;8.90;99.90
15355;DHT22;7777;52.254;9.618;2023-01-09T13:21:12;8.80;99.90
15355;DHT22;7777;52.254;9.618;2023-01-09T13:26:28;8.80;99.90
15355;DHT22;7777;52.254;9.618;2023-01-09T13:29:39;8.80;99.90
15355;DHT22;7777;52.254;9.618;2023-01-09T13:34:52;8.80;99.90
15355;DHT22;7777;52.254;9.618;2023-01-09T13:37:25;8.80;99.90
15355;DHT22;7777;52.254;9.618;2023-01-09T13:39:59;8.80;99.90
15355;DHT22;7777;52.254;9.618;2023-01-09T13:42:29;8.80;99.90
15355;DHT22;7777;52.254;9.618;2023-01-09T13:47:42;8.90;99.90
15355;DHT22;7777;52.254;9.618;2023-01-09T14:08:10;8.90;99.90
15355;DHT22;7777;52.254;9.618;2023-01-09T14:10:46;8.90;99.90
15355;DHT22;7777;52.254;9.618;2023-01-09T14:13:17;8.90;99.90
15355;DHT22;7777;52.254;9.618;2023-01-09T14:15:47;8.90;99.90
15355;DHT22;7777;52.254;9.618;2023-01-09T14:18:27;8.90;99.90
15355;DHT22;7777;52.254;9.618;2023-01-09T14:21:07;8.90;99.90
15355;DHT22;7777;52.254;9.618;2023-01-09T14:24:01;8.90;99.90
15355;DHT22;7777;52.254;9.618;2023-01-09T14:37:42;8.70;99.90
15355;DHT22;7777;52.254;9.618;2023-01-09T14:40:21;8.70;99.90
15355;DHT22;7777;52.254;9.618;2023-01-09T14:42:52;8.60;99.90
15355;DHT22;7777;52.254;9.618;2023-01-09T14:45:22;8.60;99.90
15355;DHT22;7777;52.254;9.618;2023-01-09T14:48:10;8.50;99.90
15355;DHT22;7777;52.254;9.618;2023-01-09T14:50:43;8.50;99.90
15355;DHT22;7777;52.254;9.618;2023-01-09T14:53:30;8.50;99.90
15355;DHT22;7777;52.254;9.618;2023-01-09T14:56:03;8.50;99.90
15355;DHT22;7777;52.254;9.618;2023-01-09T14:58:35;8.50;99.90
15355;DHT22;7777;52.254;9.618;2023-01-09T15:06:22;8.40;99.90
15355;DHT22;7777;52.254;9.618;2023-01-09T15:09:02;8.40;99.90
15355;DHT22;7777;52.254;9.618;2023-01-09T15:11:35;8.40;99.90
15355;DHT22;7777;52.254;9.618;2023-01-09T15:14:04;8.30;99.90
15355;DHT22;7777;52.254;9.618;2023-01-09T15:16:31;8.30;99.90
15355;DHT22;7777;52.254;9.618;2023-01-09T15:19:06;8.30;99.90
15355;DHT22;7777;52.254;9.618;2023-01-09T15:21:33;8.30;99.90
15355;DHT22;7777;52.254;9.618;2023-01-09T15:24:21;8.30;99.90
15355;DHT22;7777;52.254;9.618;2023-01-09T15:27:03;8.30;99.90
15355;DHT22;7777;52.254;9.618;2023-01-09T15:29:35;8.30;99.90
15355;DHT22;7777;52.254;9.618;2023-01-09T15:32:04;8.30;99.90
15355;DHT22;7777;52.254;9.618;2023-01-09T15:34:38;8.30;99.90
15355;DHT22;7777;52.254;9.618;2023-01-09T15:37:04;8.30;99.90
15355;DHT22;7777;52.254;9.618;2023-01-09T15:39:58;8.30;99.90
15355;DHT22;7777;52.254;9.618;2023-01-09T15:42:28;8.30;99.90
15355;DHT22;7777;52.254;9.618;2023-01-09T15:48:27;8.30;99.90
15355;DHT22;7777;52.254;9.618;2023-01-09T15:51:09;8.30;99.90
15355;DHT22;7777;52.254;9.618;2023-01-09T15:53:42;8.30;99.90
15355;DHT22;7777;52.254;9.618;2023-01-09T15:58:58;8.20;99.90
15355;DHT22;7777;52.254;9.618;2023-01-09T16:01:29;8.20;99.90
15355;DHT22;7777;52.254;9.618;2023-01-09T16:04:03;8.20;99.90
15355;DHT22;7777;52.254;9.618;2023-01-09T16:06:31;8.20;99.90
15355;DHT22;7777;52.254;9.618;2023-01-09T16:09:02;8.20;99.90
15355;DHT22;7777;52.254;9.618;2023-01-09T16:11:35;8.20;99.90
15355;DHT22;7777;52.254;9.618;2023-01-09T16:14:15;8.20;99.90
15355;DHT22;7777;52.254;9.618;2023-01-09T16:17:02;8.20;99.90
15355;DHT22;7777;52.254;9.618;2023-01-09T16:24:51;8.10;99.90
15355;DHT22;7777;52.254;9.618;2023-01-09T16:27:31;8.10;99.90
15355;DHT22;7777;52.254;9.618;2023-01-09T16:30:00;8.10;99.90
15355;DHT22;7777;52.254;9.618;2023-01-09T16:34:57;8.00;99.90
15355;DHT22;7777;52.254;9.618;2023-01-09T16:37:29;8.00;99.90
15355;DHT22;7777;52.254;9.618;2023-01-09T16:42:43;8.00;99.90
15355;DHT22;7777;52.254;9.618;2023-01-09T16:45:34;8.00;99.90
15355;DHT22;7777;52.254;9.618;2023-01-09T16:48:15;8.00;99.90
15355;DHT22;7777;52.254;9.618;2023-01-09T16:50:43;8.00;99.90
15355;DHT22;7777;52.254;9.618;2023-01-09T16:53:16;8.00;99.90
15355;DHT22;7777;52.254;9.618;2023-01-09T16:55:44;7.90;99.90
15355;DHT22;7777;52.254;9.618;2023-01-09T16:58:23;7.90;99.90
15355;DHT22;7777;52.254;9.618;2023-01-09T17:00:50;7.90;99.90
15355;DHT22;7777;52.254;9.618;2023-01-09T17:03:17;7.90;99.90
15355;DHT22;7777;52.254;9.618;2023-01-09T17:05:51;7.90;99.90
15355;DHT22;7777;52.254;9.618;2023-01-09T17:08:23;7.90;99.90
15355;DHT22;7777;52.254;9.618;2023-01-09T17:10:55;7.90;99.90
15355;DHT22;7777;52.254;9.618;2023-01-09T17:13:22;7.90;99.90
15355;DHT22;7777;52.254;9.618;2023-01-09T17:15:49;7.90;99.90
15355;DHT22;7777;52.254;9.618;2023-01-09T17:18:19;7.80;99.90
15355;DHT22;7777;52.254;9.618;2023-01-09T17:20:49;7.80;99.90
15355;DHT22;7777;52.254;9.618;2023-01-09T17:23:18;7.80;99.90
15355;DHT22;7777;52.254;9.618;2023-01-09T17:25:48;7.70;99.90
15355;DHT22;7777;52.254;9.618;2023-01-09T17:28:34;7.70;99.90
15355;DHT22;7777;52.254;9.618;2023-01-09T17:31:05;7.60;99.90
15355;DHT22;7777;52.254;9.618;2023-01-09T17:33:34;7.60;99.90
15355;DHT22;7777;52.254;9.618;2023-01-09T17:36:01;7.60;99.90
15355;DHT22;7777;52.254;9.618;2023-01-09T17:38:27;7.60;99.90
15355;DHT22;7777;52.254;9.618;2023-01-09T17:40:56;7.60;99.90
15355;DHT22;7777;52.254;9.618;2023-01-09T17:43:22;7.50;99.90
15355;DHT22;7777;52.254;9.618;2023-01-09T17:45:48;7.50;99.90
15355;DHT22;7777;52.254;9.618;2023-01-09T17:48:19;7.50;99.90
15355;DHT22;7777;52.254;9.618;2023-01-09T17:50:48;7.50;99.90
15355;DHT22;7777;52.254;9.618;2023-01-09T17:53:14;7.50;99.90
15355;DHT22;7777;52.254;9.618;2023-01-09T17:55:43;7.50;99.90
15355;DHT22;7777;52.254;9.618;2023-01-09T17:58:24;7.40;99.90
15355;DHT22;7777;52.254;9.618;2023-01-09T18:00:53;7.40;99.90
15355;DHT22;7777;52.254;9.618;2023-01-09T18:03:19;7.40;99.90
15355;DHT22;7777;52.254;9.618;2023-01-09T18:05:49;7.40;99.90
15355;DHT22;7777;52.254;9.618;2023-01-09T18:08:17;7.30;99.90
15355;DHT22;7777;52.254;9.618;2023-01-09T18:10:43;7.30;99.90
15355;DHT22;7777;52.254;9.618;2023-01-09T18:13:13;7.30;99.90
15355;DHT22;7777;52.254;9.618;2023-01-09T18:15:45;7.30;99.90
15355;DHT22;7777;52.254;9.618;2023-01-09T18:18:11;7.30;99.90
15355;DHT22;7777;52.254;9.618;2023-01-09T18:20:42;7.30;99.90
15355;DHT22;7777;52.254;9.618;2023-01-09T18:23:09;7.20;99.90
15355;DHT22;7777;52.254;9.618;2023-01-09T18:25:40;7.30;99.90
15355;DHT22;7777;52.254;9.618;2023-01-09T18:28:08;7.20;99.90
15355;DHT22;7777;52.254;9.618;2023-01-09T18:30:35;7.20;99.90
15355;DHT22;7777;52.254;9.618;2023-01-09T18:33:01;7.20;99.90
15355;DHT22;7777;52.254;9.618;2023-01-09T18:35:27;7.20;99.90
15355;DHT22;7777;52.254;9.618;2023-01-09T18:37:53;7.20;99.90
15355;DHT22;7777;52.254;9.618;2023-01-09T18:40:19;7.20;99.90
15355;DHT22;7777;52.254;9.618;2023-01-09T18:42:45;7.20;99.90
15355;DHT22;7777;52.254;9.618;2023-01-09T18:45:11;7.20;99.90
15355;DHT22;7777;52.254;9.618;2023-01-09T18:47:37;7.20;99.90
15355;DHT22;7777;52.254;9.618;2023-01-09T18:50:03;7.20;99.90
15355;DHT22;7777;52.254;9.618;2023-01-09T18:52:29;7.20;99.90
15355;DHT22;7777;52.254;9.618;2023-01-09T18:54:54;7.20;99.90
15355;DHT22;7777;52.254;9.618;2023-01-09T18:57:20;7.20;99.90
15355;DHT22;7777;52.254;9.618;2023-01-09T18:59:46;7.10;99.90
15355;DHT22;7777;52.254;9.618;2023-01-09T19:02:23;7.20;99.90
15355;DHT22;7777;52.254;9.618;2023-01-09T19:04:50;7.20;99.90
15355;DHT22;7777;52.254;9.618;2023-01-09T19:07:16;7.20;99.90
15355;DHT22;7777;52.254;9.618;2023-01-09T19:09:43;7.20;99.90
15355;DHT22;7777;52.254;9.618;2023-01-09T19:12:10;7.20;99.90
15355;DHT22;7777;52.254;9.618;2023-01-09T19:14:37;7.30;99.90
15355;DHT22;7777;52.254;9.618;2023-01-09T19:17:03;7.30;99.90
15355;DHT22;7777;52.254;9.618;2023-01-09T19:19:29;7.30;99.90
15355;DHT22;7777;52.254;9.618;2023-01-09T19:21:56;7.20;99.90
15355;DHT22;7777;52.254;9.618;2023-01-09T19:24:23;7.30;99.90
15355;DHT22;7777;52.254;9.618;2023-01-09T19:26:49;7.30;99.90